LSZB/BRN METAR and TAF weather

Enter ICAO airport designator
Station Type Date Time Source
LSZB METAR 2021/05/12 01:20 UTC NOAA

LSZB 120120Z AUTO 15005KT 090V180 9999 FEW033 OVC047 08/06 Q1016


Station Type Date Time Source
LSZB Decoded METAR 2021/05/12 01:20 UTC NOAA

Bern / Belp , Switzerland (LSZB) 46-55N 007-30E
May 11, 2021 - 09:20 PM EDT / 2021.05.12 0120 UTC
Wind: from the SSE (150 degrees) at 6 MPH (5 KT) (direction variable):0
Visibility: greater than 7 mile(s):0
Sky conditions: overcast
Temperature: 46 F (8 C)
Dew Point: 42 F (6 C)
Relative Humidity: 87%
Pressure (altimeter): 30.00 in. Hg (1016 hPa)
ob: LSZB 120120Z AUTO 15005KT 090V180 9999 FEW033 OVC047 08/06 Q1016
cycle: 1

Station Type Date Time Source
LSZB TAF 2014/12/22 20:03 UTC NOAA

TAF
AMD TAF
AMD LSZB 222054Z 2220/2224 CNL

Example: see airport list